createdAt,value
2018-12-24T00:00:55.321Z,3.40
2018-12-24T00:03:44.000Z,2.90
2018-12-24T00:06:13.341Z,3.67
2018-12-24T00:08:42.692Z,4.00
2018-12-24T00:11:12.058Z,4.50
2018-12-24T00:13:53.745Z,4.60
2018-12-24T00:16:23.091Z,5.63
2018-12-24T00:19:11.801Z,5.70
2018-12-24T00:21:41.159Z,6.50
2018-12-24T00:24:29.927Z,6.80
2018-12-24T00:26:59.279Z,7.20
2018-12-24T00:32:17.799Z,8.90
2018-12-24T00:34:47.145Z,8.90
2018-12-24T00:37:16.511Z,7.83
2018-12-24T00:39:45.840Z,7.20
2018-12-24T00:42:15.894Z,7.60
2018-12-24T00:45:28.183Z,7.93
2018-12-24T00:47:57.559Z,7.87
2018-12-24T00:50:26.889Z,7.27
2018-12-24T00:52:56.229Z,8.27
2018-12-24T00:55:25.592Z,7.30
2018-12-24T00:58:18.049Z,7.17
2018-12-24T01:00:47.402Z,8.13
2018-12-24T01:03:16.748Z,8.13
2018-12-24T01:05:46.100Z,9.43
2018-12-24T01:08:15.458Z,9.73
2018-12-24T01:10:44.908Z,10.80
2018-12-24T01:13:15.236Z,11.13
2018-12-24T01:15:44.582Z,9.80
2018-12-24T01:18:13.916Z,9.37
2018-12-24T01:20:43.273Z,9.33
2018-12-24T01:23:12.625Z,10.33
2018-12-24T01:25:41.978Z,7.83
2018-12-24T01:28:11.297Z,6.57
2018-12-24T01:30:45.336Z,6.67
2018-12-24T01:33:14.676Z,5.70
2018-12-24T01:35:44.968Z,5.27
2018-12-24T01:38:14.290Z,5.83
2018-12-24T01:40:43.631Z,6.27
2018-12-24T01:43:12.970Z,7.13
2018-12-24T01:45:42.326Z,7.07
2018-12-24T01:48:11.653Z,6.83
2018-12-24T01:50:41.007Z,7.60
2018-12-24T01:53:10.357Z,7.27
2018-12-24T01:55:39.703Z,6.83
2018-12-24T01:58:09.053Z,6.40
2018-12-24T02:00:38.388Z,6.67
2018-12-24T02:03:08.724Z,6.03
2018-12-24T02:05:38.045Z,5.47
2018-12-24T02:08:07.394Z,6.13
2018-12-24T02:10:36.795Z,5.87
2018-12-24T02:13:06.133Z,6.33
2018-12-24T02:15:36.435Z,5.90
2018-12-24T02:18:05.786Z,5.70
2018-12-24T02:20:35.119Z,5.30
2018-12-24T02:23:04.467Z,5.40
2018-12-24T02:25:33.779Z,5.40
2018-12-24T02:28:03.288Z,5.87
2018-12-24T02:30:32.634Z,5.70
2018-12-24T02:33:07.650Z,5.30
2018-12-24T02:35:36.978Z,5.90
2018-12-24T02:38:07.304Z,5.90
2018-12-24T02:40:36.653Z,5.33
2018-12-24T02:43:05.978Z,5.50
2018-12-24T02:45:35.358Z,5.43
2018-12-24T02:48:04.683Z,5.43
2018-12-24T02:50:34.031Z,6.60
2018-12-24T02:53:03.387Z,5.10
2018-12-24T02:55:33.670Z,4.90
2018-12-24T02:58:03.016Z,6.73
2018-12-24T03:00:32.348Z,5.67
2018-12-24T03:03:01.706Z,5.80
2018-12-24T03:05:31.050Z,5.90
2018-12-24T03:08:01.522Z,5.70
2018-12-24T03:10:30.812Z,6.20
2018-12-24T03:13:02.970Z,5.80
2018-12-24T03:15:32.165Z,5.83
2018-12-24T03:18:03.165Z,5.53
2018-12-24T03:20:32.506Z,6.50
2018-12-24T03:23:01.846Z,6.33
2018-12-24T03:25:31.182Z,6.67
2018-12-24T03:28:01.742Z,6.10
2018-12-24T03:30:31.054Z,5.93
2018-12-24T03:33:01.333Z,6.00
2018-12-24T03:35:30.655Z,5.60
2018-12-24T03:38:02.179Z,6.00
2018-12-24T03:40:31.682Z,5.37
2018-12-24T03:43:01.000Z,5.67
2018-12-24T03:45:30.336Z,4.90
2018-12-24T03:47:59.679Z,5.07
2018-12-24T03:50:29.010Z,5.00
2018-12-24T03:52:58.360Z,5.03
2018-12-24T03:55:27.674Z,4.80
2018-12-24T03:57:57.029Z,4.53
2018-12-24T04:00:26.363Z,4.90
2018-12-24T04:02:55.721Z,3.90
2018-12-24T04:05:35.403Z,4.50
2018-12-24T04:08:05.754Z,4.57
2018-12-24T04:10:35.089Z,4.33
2018-12-24T04:13:22.408Z,4.20
2018-12-24T04:15:46.362Z,4.50
2018-12-24T04:18:37.863Z,4.40
2018-12-24T04:21:07.203Z,4.67
2018-12-24T04:23:36.551Z,4.40
2018-12-24T04:26:05.882Z,4.67
2018-12-24T04:28:47.281Z,4.87
2018-12-24T04:31:16.632Z,3.80
2018-12-24T04:33:45.952Z,4.83
2018-12-24T04:36:15.280Z,4.60
2018-12-24T04:38:44.619Z,4.70
2018-12-24T04:41:13.966Z,4.80
2018-12-24T04:43:43.287Z,4.40
2018-12-24T04:46:12.647Z,4.20
2018-12-24T04:48:41.980Z,4.37
2018-12-24T04:51:11.344Z,4.43
2018-12-24T04:53:41.805Z,3.90
2018-12-24T04:56:18.924Z,4.07
2018-12-24T04:58:48.258Z,3.70
2018-12-24T05:01:17.594Z,4.30
2018-12-24T05:03:46.949Z,4.00
2018-12-24T05:06:16.580Z,3.87
2018-12-24T05:08:45.928Z,4.17
2018-12-24T05:11:17.156Z,4.10
2018-12-24T05:13:46.531Z,4.13
2018-12-24T05:16:15.877Z,4.53
2018-12-24T05:18:45.217Z,3.93
2018-12-24T05:21:14.547Z,4.40
2018-12-24T05:23:43.916Z,4.00
2018-12-24T05:26:13.231Z,4.17
2018-12-24T05:28:42.581Z,4.17
2018-12-24T05:31:11.918Z,4.10
2018-12-24T05:33:43.204Z,3.97
2018-12-24T05:36:12.536Z,5.20
2018-12-24T05:38:41.889Z,6.70
2018-12-24T05:41:11.233Z,6.40
2018-12-24T05:43:40.559Z,5.83
2018-12-24T05:46:10.858Z,5.33
2018-12-24T05:48:40.203Z,5.07
2018-12-24T05:51:09.534Z,4.60
2018-12-24T05:53:38.862Z,4.70
2018-12-24T05:56:09.233Z,4.97
2018-12-24T05:58:38.578Z,4.80
2018-12-24T06:01:07.993Z,5.50
2018-12-24T06:03:37.426Z,5.13
2018-12-24T06:06:10.803Z,5.10
2018-12-24T06:08:40.137Z,4.80
2018-12-24T06:11:10.428Z,5.57
2018-12-24T06:13:39.766Z,5.50
2018-12-24T06:16:09.124Z,5.50
2018-12-24T06:18:38.445Z,4.87
2018-12-24T06:21:07.786Z,4.87
2018-12-24T06:23:37.127Z,4.70
2018-12-24T06:26:06.484Z,3.80
2018-12-24T06:28:35.803Z,5.00
2018-12-24T06:31:05.157Z,5.93
2018-12-24T06:33:42.506Z,6.70
2018-12-24T06:36:11.870Z,7.43
2018-12-24T06:38:42.158Z,7.93
2018-12-24T06:41:11.481Z,6.87
2018-12-24T06:43:40.834Z,5.30
2018-12-24T06:46:11.163Z,5.23
2018-12-24T06:48:40.536Z,4.93
2018-12-24T06:51:10.770Z,4.53
2018-12-24T06:53:40.109Z,4.57
2018-12-24T06:56:17.473Z,4.13
2018-12-24T06:58:46.838Z,4.20
2018-12-24T07:01:16.191Z,4.37
2018-12-24T07:03:45.550Z,3.97
2018-12-24T07:06:14.887Z,4.50
2018-12-24T07:08:44.240Z,4.03
2018-12-24T07:11:13.610Z,4.20
2018-12-24T07:13:42.946Z,3.60
2018-12-24T07:16:12.297Z,3.87
2018-12-24T07:18:41.672Z,3.10
2018-12-24T07:21:11.055Z,3.37
2018-12-24T07:23:40.528Z,2.93
2018-12-24T07:26:10.840Z,2.73
2018-12-24T07:28:40.216Z,3.10
2018-12-24T07:31:09.658Z,2.47
2018-12-24T07:33:38.997Z,2.73
2018-12-24T07:36:08.401Z,2.40
2018-12-24T07:38:37.809Z,2.40
2018-12-24T07:41:07.281Z,2.37
2018-12-24T07:43:36.892Z,2.20
2018-12-24T07:46:06.331Z,2.40
2018-12-24T07:48:35.653Z,2.33
2018-12-24T07:51:05.090Z,2.17
2018-12-24T07:53:36.458Z,1.97
2018-12-24T07:56:06.269Z,2.03
2018-12-24T07:58:43.752Z,2.10
2018-12-24T08:01:13.344Z,2.43
2018-12-24T08:03:44.687Z,2.23
2018-12-24T08:06:14.024Z,2.33
2018-12-24T08:08:44.575Z,2.60
2018-12-24T08:11:14.215Z,2.40
2018-12-24T08:13:45.945Z,2.60
2018-12-24T08:16:15.654Z,2.50
2018-12-24T08:18:45.893Z,2.57
2018-12-24T08:21:15.246Z,2.40
2018-12-24T08:23:46.553Z,2.60
2018-12-24T08:26:15.902Z,2.80
2018-12-24T08:28:45.239Z,2.47
2018-12-24T08:31:14.570Z,2.80
2018-12-24T08:33:43.929Z,2.73
2018-12-24T08:36:13.271Z,2.70
2018-12-24T08:38:42.614Z,2.70
2018-12-24T08:41:11.941Z,2.63
2018-12-24T08:43:41.294Z,2.60
2018-12-24T08:46:18.318Z,2.87
2018-12-24T08:48:47.663Z,2.90
2018-12-24T08:51:16.990Z,2.87
2018-12-24T08:53:46.327Z,3.03
2018-12-24T08:56:15.644Z,3.13
2018-12-24T08:58:45.018Z,2.43
2018-12-24T09:01:14.328Z,2.90
2018-12-24T09:03:43.640Z,2.90
2018-12-24T09:06:20.741Z,3.10
2018-12-24T09:09:10.142Z,3.03
2018-12-24T09:11:39.473Z,3.20
2018-12-24T09:14:08.787Z,3.03
2018-12-24T09:16:38.114Z,3.47
2018-12-24T09:19:07.444Z,3.00
2018-12-24T09:21:36.787Z,3.20
2018-12-24T09:24:07.006Z,2.73
2018-12-24T09:26:36.363Z,3.10
2018-12-24T09:29:05.699Z,2.77
2018-12-24T09:31:35.043Z,2.47
2018-12-24T09:34:21.336Z,2.77
2018-12-24T09:36:50.689Z,2.70
2018-12-24T09:39:28.008Z,2.23
2018-12-24T09:41:57.400Z,2.40
2018-12-24T09:44:26.694Z,2.13
2018-12-24T09:46:56.037Z,1.77
2018-12-24T09:49:26.364Z,1.90
2018-12-24T09:51:55.698Z,2.07
2018-12-24T09:54:25.299Z,2.00
2018-12-24T09:56:54.694Z,1.80
2018-12-24T09:59:24.044Z,2.07
2018-12-24T10:01:57.933Z,1.97
2018-12-24T10:04:28.137Z,2.10
2018-12-24T10:06:59.090Z,2.20
2018-12-24T10:09:40.524Z,1.90
2018-12-24T10:12:09.853Z,1.90
2018-12-24T10:14:43.799Z,1.93
2018-12-24T10:17:13.115Z,1.70
2018-12-24T10:19:42.466Z,1.97
2018-12-24T10:22:11.794Z,1.50
2018-12-24T10:24:42.040Z,1.70
2018-12-24T10:27:11.381Z,1.87
2018-12-24T10:29:40.722Z,1.80
2018-12-24T10:32:10.075Z,1.57
2018-12-24T10:34:39.406Z,1.80
2018-12-24T10:37:08.748Z,1.90
2018-12-24T10:39:38.065Z,1.60
2018-12-24T10:42:23.945Z,1.60
2018-12-24T10:44:53.269Z,2.00
2018-12-24T10:47:33.823Z,1.70
2018-12-24T10:50:03.138Z,1.60
2018-12-24T10:52:32.478Z,1.93
2018-12-24T10:55:06.843Z,1.80
2018-12-24T10:57:36.164Z,1.47
2018-12-24T11:00:06.907Z,1.73
2018-12-24T11:02:37.172Z,1.90
2018-12-24T11:05:07.429Z,1.90
2018-12-24T11:07:38.653Z,2.10
2018-12-24T11:10:11.449Z,2.20
2018-12-24T11:12:40.759Z,2.20
2018-12-24T11:15:10.539Z,2.07
2018-12-24T11:17:39.872Z,2.20
2018-12-24T11:20:09.210Z,1.87
2018-12-24T11:22:38.547Z,2.13
2018-12-24T11:25:07.879Z,2.30
2018-12-24T11:27:37.214Z,2.07
2018-12-24T11:30:07.662Z,1.90
2018-12-24T11:32:36.989Z,2.23
2018-12-24T11:35:06.313Z,2.33
2018-12-24T11:37:35.640Z,2.00
2018-12-24T11:40:05.833Z,2.10
2018-12-24T11:42:47.703Z,2.50
2018-12-24T11:45:17.029Z,3.23
2018-12-24T11:47:47.331Z,2.93
2018-12-24T11:50:16.686Z,2.10
2018-12-24T11:52:46.970Z,2.50
2018-12-24T11:55:16.303Z,2.37
2018-12-24T11:57:47.412Z,3.07
2018-12-24T12:00:25.814Z,2.50
2018-12-24T12:02:55.159Z,2.43
2018-12-24T12:05:32.894Z,2.30
2018-12-24T12:08:02.227Z,2.20
2018-12-24T12:10:31.533Z,2.10
2018-12-24T12:13:05.625Z,2.10
2018-12-24T12:15:42.357Z,2.60
2018-12-24T12:18:06.006Z,2.73
2018-12-24T12:20:35.317Z,2.30
2018-12-24T12:23:04.744Z,2.50
2018-12-24T12:25:34.992Z,2.20
2018-12-24T12:28:04.333Z,2.40
2018-12-24T12:30:40.744Z,2.40
2018-12-24T12:33:10.062Z,2.30
2018-12-24T12:35:39.409Z,3.20
2018-12-24T12:38:08.742Z,2.53
2018-12-24T12:40:38.072Z,2.27
2018-12-24T12:43:07.414Z,1.80
2018-12-24T12:45:40.768Z,2.10
2018-12-24T12:48:12.663Z,2.10
2018-12-24T12:50:43.067Z,1.80
2018-12-24T12:53:12.446Z,1.93
2018-12-24T12:55:51.727Z,1.80
2018-12-24T12:58:21.168Z,2.10
2018-12-24T13:00:50.627Z,2.00
2018-12-24T13:03:20.076Z,2.07
2018-12-24T13:05:49.551Z,1.90
2018-12-24T13:08:19.055Z,2.20
2018-12-24T13:10:48.481Z,1.93
2018-12-24T13:13:18.006Z,2.43
2018-12-24T13:15:47.415Z,2.30
2018-12-24T13:18:16.764Z,2.20
2018-12-24T13:20:46.099Z,2.13
2018-12-24T13:23:16.353Z,2.57
2018-12-24T13:25:45.689Z,2.70
2018-12-24T13:28:16.993Z,2.80
2018-12-24T13:30:46.515Z,2.20
2018-12-24T13:33:15.831Z,3.27
2018-12-24T13:35:55.961Z,4.10
2018-12-24T13:38:25.298Z,2.57
2018-12-24T13:40:56.637Z,2.40
2018-12-24T13:43:25.972Z,2.10
2018-12-24T13:45:55.365Z,2.47
2018-12-24T13:49:00.798Z,2.43
2018-12-24T13:51:30.447Z,2.47
2018-12-24T13:54:19.021Z,3.10
2018-12-24T14:00:19.654Z,2.87
2018-12-24T14:02:48.919Z,2.87
2018-12-24T14:05:37.519Z,3.03
2018-12-24T14:08:06.757Z,3.17
2018-12-24T14:10:35.999Z,2.80
2018-12-24T14:13:05.271Z,3.00
2018-12-24T14:15:34.521Z,2.50
2018-12-24T14:18:03.761Z,2.40
2018-12-24T14:20:32.994Z,2.20
2018-12-24T14:23:02.255Z,2.70
2018-12-24T14:25:31.471Z,2.53
2018-12-24T14:28:40.741Z,3.37
2018-12-24T14:31:09.988Z,2.60
2018-12-24T14:33:39.203Z,2.50
2018-12-24T14:36:27.806Z,2.40
2018-12-24T14:38:57.054Z,2.73
2018-12-24T14:41:26.293Z,2.40
2018-12-24T14:43:55.517Z,2.27
2018-12-24T14:46:25.657Z,2.70
2018-12-24T14:49:34.136Z,2.97
2018-12-24T14:52:03.380Z,2.63
2018-12-24T14:54:32.602Z,2.40
2018-12-24T14:57:21.168Z,2.43
2018-12-24T14:59:50.410Z,2.20
2018-12-24T15:02:19.737Z,2.60
2018-12-24T15:04:50.077Z,2.40
2018-12-24T15:11:41.461Z,2.13
2018-12-24T15:14:30.038Z,2.53
2018-12-24T15:16:59.297Z,2.20
2018-12-24T15:19:41.047Z,2.80
2018-12-24T15:22:10.305Z,2.60
2018-12-24T15:24:39.545Z,2.70
2018-12-24T15:27:08.821Z,2.40
2018-12-24T15:29:38.049Z,3.00
2018-12-24T15:32:07.301Z,2.80
2018-12-24T15:34:36.524Z,3.23
2018-12-24T15:37:05.761Z,2.93
2018-12-24T15:39:34.999Z,2.67
2018-12-24T15:42:04.225Z,2.87
2018-12-24T15:44:33.452Z,3.10
2018-12-24T15:47:02.694Z,2.50
2018-12-24T15:49:31.953Z,2.57
2018-12-24T15:52:01.176Z,2.60
2018-12-24T15:54:30.389Z,2.30
2018-12-24T15:56:59.634Z,2.43
2018-12-24T15:59:28.863Z,2.40
2018-12-24T16:01:58.102Z,2.33
2018-12-24T16:04:27.332Z,2.40
2018-12-24T16:06:56.567Z,2.80
2018-12-24T16:12:33.214Z,2.50
2018-12-24T16:15:02.450Z,2.20
2018-12-24T16:17:31.672Z,2.27
2018-12-24T16:20:00.928Z,2.33
2018-12-24T16:22:30.153Z,2.10
2018-12-24T16:24:59.394Z,2.13
2018-12-24T16:27:28.625Z,2.13
2018-12-24T16:29:57.847Z,2.20
2018-12-24T16:32:27.079Z,2.20
2018-12-24T16:34:56.334Z,2.40
2018-12-24T16:37:25.555Z,2.07
2018-12-24T16:39:54.799Z,2.40
2018-12-24T16:42:24.034Z,2.43
2018-12-24T16:44:53.260Z,2.10
2018-12-24T16:47:22.516Z,2.20
2018-12-24T16:49:51.734Z,2.63
2018-12-24T16:52:20.977Z,2.77
2018-12-24T16:54:50.208Z,3.03
2018-12-24T16:57:19.478Z,2.73
2018-12-24T16:59:48.692Z,2.50
2018-12-24T17:02:18.023Z,2.10
2018-12-24T17:08:39.249Z,2.93
2018-12-24T17:11:08.487Z,3.17
2018-12-24T17:13:37.720Z,2.43
2018-12-24T17:16:06.984Z,2.83
2018-12-24T17:18:36.224Z,2.63
2018-12-24T17:21:05.473Z,2.70
2018-12-24T17:23:34.697Z,3.07
2018-12-24T17:26:03.934Z,2.80
2018-12-24T17:28:33.160Z,3.20
2018-12-24T17:31:02.418Z,2.90
2018-12-24T17:33:31.653Z,2.63
2018-12-24T17:40:10.431Z,3.03
2018-12-24T17:42:39.687Z,2.80
2018-12-24T17:45:08.929Z,2.60
2018-12-24T17:47:38.160Z,2.80
2018-12-24T17:50:47.417Z,3.50
2018-12-24T17:53:16.679Z,3.23
2018-12-24T17:55:45.926Z,3.63
2018-12-24T17:59:02.260Z,3.90
2018-12-24T18:01:03.412Z,3.33
2018-12-24T18:03:52.687Z,3.37
2018-12-24T18:06:41.263Z,3.93
2018-12-24T18:09:10.785Z,3.50
2018-12-24T18:11:40.011Z,3.60
2018-12-24T18:14:09.290Z,3.60
2018-12-24T18:16:38.605Z,5.13
2018-12-24T18:19:07.850Z,3.90
2018-12-24T18:21:37.099Z,3.80
2018-12-24T18:24:06.322Z,3.70
2018-12-24T18:26:35.566Z,3.63
2018-12-24T18:29:04.784Z,3.53
2018-12-24T18:31:34.044Z,3.80
2018-12-24T18:34:03.273Z,4.23
2018-12-24T18:36:32.527Z,4.20
2018-12-24T18:41:50.926Z,4.13
2018-12-24T18:44:57.369Z,3.77
2018-12-24T18:47:33.176Z,3.57
2018-12-24T18:50:16.666Z,3.70
2018-12-24T18:52:45.904Z,4.47
2018-12-24T18:55:15.147Z,3.70
2018-12-24T18:57:44.370Z,4.00
2018-12-24T19:00:13.629Z,3.63
2018-12-24T19:02:42.873Z,3.77
2018-12-24T19:05:12.110Z,3.70
2018-12-24T19:07:41.343Z,4.03
2018-12-24T19:10:10.607Z,4.03
2018-12-24T19:12:39.849Z,4.20
2018-12-24T19:15:09.085Z,5.00
2018-12-24T19:17:41.610Z,3.90
2018-12-24T19:20:28.369Z,4.13
2018-12-24T19:22:57.614Z,4.20
2018-12-24T19:25:26.848Z,4.10
2018-12-24T19:27:56.084Z,3.80
2018-12-24T19:30:25.305Z,3.80
2018-12-24T19:32:54.560Z,3.60
2018-12-24T19:35:23.787Z,3.50
2018-12-24T19:37:53.029Z,3.37
2018-12-24T19:40:22.243Z,4.20
2018-12-24T19:42:51.482Z,4.50
2018-12-24T19:45:20.755Z,4.73
2018-12-24T19:47:50.271Z,4.90
2018-12-24T19:50:39.991Z,4.33
2018-12-24T19:53:09.230Z,6.47
2018-12-24T19:55:38.474Z,7.30
2018-12-24T19:58:07.712Z,8.20
2018-12-24T20:00:36.965Z,6.53
2018-12-24T20:03:06.178Z,5.53
2018-12-24T20:05:54.757Z,5.43
2018-12-24T20:08:23.982Z,5.20
2018-12-24T20:10:53.243Z,4.80
2018-12-24T20:13:22.457Z,4.73
2018-12-24T20:15:51.690Z,5.90
2018-12-24T20:18:20.949Z,6.23
2018-12-24T20:20:50.192Z,5.90
2018-12-24T20:23:19.440Z,5.93
2018-12-24T20:26:08.009Z,6.03
2018-12-24T20:28:37.245Z,5.23
2018-12-24T20:31:06.478Z,6.40
2018-12-24T20:33:35.719Z,6.80
2018-12-24T20:36:05.218Z,6.23
2018-12-24T20:38:37.237Z,6.67
2018-12-24T20:41:24.489Z,7.13
2018-12-24T20:43:53.743Z,6.83
2018-12-24T20:46:22.970Z,6.90
2018-12-24T20:48:52.618Z,7.37
2018-12-24T20:51:42.258Z,7.03
2018-12-24T20:54:30.853Z,8.43
2018-12-24T20:57:00.097Z,7.50
2018-12-24T20:59:29.423Z,7.37
2018-12-24T21:01:58.663Z,7.37
2018-12-24T21:04:27.899Z,7.90
2018-12-24T21:10:29.066Z,7.80
2018-12-24T21:12:58.253Z,7.17
2018-12-24T21:15:27.495Z,7.60
2018-12-24T21:17:56.757Z,6.90
2018-12-24T21:20:26.009Z,6.83
2018-12-24T21:23:14.637Z,7.47
2018-12-24T21:25:43.879Z,7.33
2018-12-24T21:28:13.154Z,7.30
2018-12-24T21:30:42.371Z,7.47
2018-12-24T21:33:11.619Z,7.43
2018-12-24T21:35:40.853Z,7.73
2018-12-24T21:41:41.317Z,8.63
2018-12-24T21:44:10.668Z,9.20
2018-12-24T21:50:43.911Z,9.17
2018-12-24T21:53:13.161Z,8.43
2018-12-24T21:55:42.429Z,8.73
2018-12-24T21:58:11.661Z,8.77
2018-12-24T22:00:40.939Z,8.87
2018-12-24T22:03:10.183Z,8.90
2018-12-24T22:08:52.833Z,8.50
2018-12-24T22:11:22.103Z,8.10
2018-12-24T22:14:10.712Z,8.13
2018-12-24T22:16:39.969Z,8.37
2018-12-24T22:19:09.229Z,8.67
2018-12-24T22:24:47.438Z,8.87
2018-12-24T22:27:16.677Z,8.40
2018-12-24T22:29:45.933Z,9.30
2018-12-24T22:32:15.176Z,10.47
2018-12-24T22:34:44.451Z,8.70
2018-12-24T22:37:13.677Z,9.23
2018-12-24T22:39:42.997Z,9.43
2018-12-24T22:42:12.242Z,8.67
2018-12-24T22:44:41.466Z,9.07
2018-12-24T22:47:10.714Z,8.77
2018-12-24T22:49:39.950Z,8.37
2018-12-24T22:52:09.292Z,9.17
2018-12-24T22:54:57.885Z,8.87
2018-12-24T22:57:27.125Z,9.20
2018-12-24T22:59:56.372Z,9.00
2018-12-24T23:02:25.634Z,8.90
2018-12-24T23:04:54.891Z,8.60
2018-12-24T23:07:24.138Z,9.73
2018-12-24T23:09:53.368Z,9.63
2018-12-24T23:12:22.606Z,9.70
2018-12-24T23:14:51.855Z,9.83
2018-12-24T23:17:21.087Z,9.40
2018-12-24T23:19:50.333Z,9.60
2018-12-24T23:22:19.555Z,9.23
2018-12-24T23:24:48.826Z,9.33
2018-12-24T23:27:18.056Z,9.20
2018-12-24T23:29:47.321Z,9.13
2018-12-24T23:32:16.546Z,9.10
2018-12-24T23:34:45.854Z,9.77
2018-12-24T23:37:15.089Z,9.67
2018-12-24T23:39:44.337Z,9.10
2018-12-24T23:42:13.572Z,10.07
2018-12-24T23:44:42.801Z,9.70
2018-12-24T23:47:12.040Z,9.43
2018-12-24T23:49:41.287Z,9.30
2018-12-24T23:52:10.540Z,9.47
2018-12-24T23:54:39.762Z,9.90
2018-12-24T23:57:28.389Z,10.17
2018-12-24T23:59:57.624Z,9.63
